Terminal Aerodrome Forecast
Issued by NWS

Home | Current Version | Previous Version | Text Only | Print | Product List | Glossary On
Versions: 1 2 3 4 5 6 7 8 9 10 11 12 13 14 15 16
293
FTAK31 PAJN 260539
TAFAYA
TAF
PAYA 260539Z 2606/2706 VRB05KT P6SM BKN045 OVC120
     FM261300 10010KT P6SM -RA SCT025 OVC040
     FM261900 08007KT 5SM -RA BR BKN015 OVC025 WS020/07035KT
      AMD NOT SKED=

USA.gov is the U.S. government's official web portal to all federal, state and local government web resources and services.